sensor_id;sensor_type;location;lat;lon;timestamp;temperature;humidity
1778;DHT22;886;50.082;8.222;2023-04-24T00:02:03;12.40;99.90
1778;DHT22;886;50.082;8.222;2023-04-24T00:04:36;12.30;99.90
1778;DHT22;886;50.082;8.222;2023-04-24T00:07:07;12.30;99.90
1778;DHT22;886;50.082;8.222;2023-04-24T00:09:34;12.40;99.90
1778;DHT22;886;50.082;8.222;2023-04-24T00:12:02;12.50;99.90
1778;DHT22;886;50.082;8.222;2023-04-24T00:14:32;12.50;99.90
1778;DHT22;886;50.082;8.222;2023-04-24T00:17:00;12.50;99.90
1778;DHT22;886;50.082;8.222;2023-04-24T00:19:29;12.40;99.90
1778;DHT22;886;50.082;8.222;2023-04-24T00:21:58;12.50;99.90
1778;DHT22;886;50.082;8.222;2023-04-24T00:24:26;12.50;99.90
1778;DHT22;886;50.082;8.222;2023-04-24T00:26:53;12.50;99.90
1778;DHT22;886;50.082;8.222;2023-04-24T00:29:20;12.60;99.90
1778;DHT22;886;50.082;8.222;2023-04-24T00:31:54;12.50;99.90
1778;DHT22;886;50.082;8.222;2023-04-24T00:34:24;12.50;99.90
1778;DHT22;886;50.082;8.222;2023-04-24T00:36:52;12.60;99.90
1778;DHT22;886;50.082;8.222;2023-04-24T00:39:19;12.60;99.90
1778;DHT22;886;50.082;8.222;2023-04-24T00:41:49;12.60;99.90
1778;DHT22;886;50.082;8.222;2023-04-24T00:44:17;12.70;99.90
1778;DHT22;886;50.082;8.222;2023-04-24T00:46:44;12.70;99.90
1778;DHT22;886;50.082;8.222;2023-04-24T00:49:14;12.70;99.90
1778;DHT22;886;50.082;8.222;2023-04-24T00:51:41;12.80;99.90
1778;DHT22;886;50.082;8.222;2023-04-24T00:54:21;12.80;99.90
1778;DHT22;886;50.082;8.222;2023-04-24T00:56:48;12.80;99.90
1778;DHT22;886;50.082;8.222;2023-04-24T00:59:16;12.90;99.90
1778;DHT22;886;50.082;8.222;2023-04-24T01:01:44;12.90;99.90
1778;DHT22;886;50.082;8.222;2023-04-24T01:04:13;12.90;99.90
1778;DHT22;886;50.082;8.222;2023-04-24T01:06:42;12.90;99.90
1778;DHT22;886;50.082;8.222;2023-04-24T01:09:18;12.90;99.90
1778;DHT22;886;50.082;8.222;2023-04-24T01:11:45;12.90;99.90
1778;DHT22;886;50.082;8.222;2023-04-24T01:14:13;12.90;99.90
1778;DHT22;886;50.082;8.222;2023-04-24T01:16:46;12.90;99.90
1778;DHT22;886;50.082;8.222;2023-04-24T01:19:16;12.90;99.90
1778;DHT22;886;50.082;8.222;2023-04-24T01:21:48;12.90;99.90
1778;DHT22;886;50.082;8.222;2023-04-24T01:24:34;12.90;99.90
1778;DHT22;886;50.082;8.222;2023-04-24T01:27:05;12.90;99.90
1778;DHT22;886;50.082;8.222;2023-04-24T01:29:33;12.80;99.90
1778;DHT22;886;50.082;8.222;2023-04-24T01:32:01;12.90;99.90
1778;DHT22;886;50.082;8.222;2023-04-24T01:34:30;12.90;99.90
1778;DHT22;886;50.082;8.222;2023-04-24T01:36:58;12.90;99.90
1778;DHT22;886;50.082;8.222;2023-04-24T01:39:26;12.90;99.90
1778;DHT22;886;50.082;8.222;2023-04-24T01:42:05;12.90;99.90
1778;DHT22;886;50.082;8.222;2023-04-24T01:44:42;12.90;99.90
1778;DHT22;886;50.082;8.222;2023-04-24T01:47:10;12.90;99.90
1778;DHT22;886;50.082;8.222;2023-04-24T01:49:43;12.90;99.90
1778;DHT22;886;50.082;8.222;2023-04-24T01:52:12;12.90;99.90
1778;DHT22;886;50.082;8.222;2023-04-24T01:54:46;12.80;99.90
1778;DHT22;886;50.082;8.222;2023-04-24T01:57:16;12.80;99.90
1778;DHT22;886;50.082;8.222;2023-04-24T01:59:43;12.80;99.90
1778;DHT22;886;50.082;8.222;2023-04-24T02:02:28;12.80;99.90
1778;DHT22;886;50.082;8.222;2023-04-24T02:04:56;12.80;99.90
1778;DHT22;886;50.082;8.222;2023-04-24T02:07:24;12.70;99.90
1778;DHT22;886;50.082;8.222;2023-04-24T02:09:54;12.60;99.90
1778;DHT22;886;50.082;8.222;2023-04-24T02:12:23;12.60;99.90
1778;DHT22;886;50.082;8.222;2023-04-24T02:14:50;12.50;99.90
1778;DHT22;886;50.082;8.222;2023-04-24T02:17:18;12.50;99.90
1778;DHT22;886;50.082;8.222;2023-04-24T02:19:45;12.60;99.90
1778;DHT22;886;50.082;8.222;2023-04-24T02:22:13;12.70;99.90
1778;DHT22;886;50.082;8.222;2023-04-24T02:24:42;12.70;99.90
1778;DHT22;886;50.082;8.222;2023-04-24T02:27:10;12.70;99.90
1778;DHT22;886;50.082;8.222;2023-04-24T02:29:39;12.70;99.90
1778;DHT22;886;50.082;8.222;2023-04-24T02:32:07;12.70;99.90
1778;DHT22;886;50.082;8.222;2023-04-24T02:34:43;12.70;99.90
1778;DHT22;886;50.082;8.222;2023-04-24T02:37:10;12.70;99.90
1778;DHT22;886;50.082;8.222;2023-04-24T02:39:43;12.70;99.90
1778;DHT22;886;50.082;8.222;2023-04-24T02:42:10;12.70;99.90
1778;DHT22;886;50.082;8.222;2023-04-24T02:44:39;12.60;99.90
1778;DHT22;886;50.082;8.222;2023-04-24T02:47:06;12.60;99.90
1778;DHT22;886;50.082;8.222;2023-04-24T02:49:34;12.60;99.90
1778;DHT22;886;50.082;8.222;2023-04-24T02:52:02;12.70;99.90
1778;DHT22;886;50.082;8.222;2023-04-24T02:54:30;12.70;99.90
1778;DHT22;886;50.082;8.222;2023-04-24T02:57:02;12.70;99.90
1778;DHT22;886;50.082;8.222;2023-04-24T02:59:35;12.70;99.90
1778;DHT22;886;50.082;8.222;2023-04-24T03:02:04;12.60;99.90
1778;DHT22;886;50.082;8.222;2023-04-24T03:04:32;12.60;99.90
1778;DHT22;886;50.082;8.222;2023-04-24T03:07:19;12.60;99.90
1778;DHT22;886;50.082;8.222;2023-04-24T03:09:50;12.50;99.90
1778;DHT22;886;50.082;8.222;2023-04-24T03:12:17;12.60;99.90
1778;DHT22;886;50.082;8.222;2023-04-24T03:14:44;12.60;99.90
1778;DHT22;886;50.082;8.222;2023-04-24T03:17:15;12.60;99.90
1778;DHT22;886;50.082;8.222;2023-04-24T03:19:46;12.60;99.90
1778;DHT22;886;50.082;8.222;2023-04-24T03:22:13;12.60;99.90
1778;DHT22;886;50.082;8.222;2023-04-24T03:24:40;12.60;99.90
1778;DHT22;886;50.082;8.222;2023-04-24T03:27:07;12.60;99.90
1778;DHT22;886;50.082;8.222;2023-04-24T03:29:34;12.60;99.90
1778;DHT22;886;50.082;8.222;2023-04-24T03:32:02;12.60;99.90
1778;DHT22;886;50.082;8.222;2023-04-24T03:34:39;12.60;99.90
1778;DHT22;886;50.082;8.222;2023-04-24T03:37:15;12.50;99.90
1778;DHT22;886;50.082;8.222;2023-04-24T03:39:43;12.50;99.90
1778;DHT22;886;50.082;8.222;2023-04-24T03:42:11;12.50;99.90
1778;DHT22;886;50.082;8.222;2023-04-24T03:44:41;12.40;99.90
1778;DHT22;886;50.082;8.222;2023-04-24T03:47:14;12.30;99.90
1778;DHT22;886;50.082;8.222;2023-04-24T03:49:43;12.10;99.90
1778;DHT22;886;50.082;8.222;2023-04-24T03:52:16;12.00;99.90
1778;DHT22;886;50.082;8.222;2023-04-24T03:54:46;11.90;99.90
1778;DHT22;886;50.082;8.222;2023-04-24T03:57:13;11.90;99.90
1778;DHT22;886;50.082;8.222;2023-04-24T03:59:43;11.80;99.90
1778;DHT22;886;50.082;8.222;2023-04-24T04:02:10;11.80;99.90
1778;DHT22;886;50.082;8.222;2023-04-24T04:04:42;11.70;99.90
1778;DHT22;886;50.082;8.222;2023-04-24T04:07:10;11.70;99.90
1778;DHT22;886;50.082;8.222;2023-04-24T04:09:38;11.70;99.90
1778;DHT22;886;50.082;8.222;2023-04-24T04:12:05;11.70;99.90
1778;DHT22;886;50.082;8.222;2023-04-24T04:14:32;11.60;99.90
1778;DHT22;886;50.082;8.222;2023-04-24T04:17:00;11.50;99.90
1778;DHT22;886;50.082;8.222;2023-04-24T04:19:27;11.50;99.90
1778;DHT22;886;50.082;8.222;2023-04-24T04:21:58;11.50;99.90
1778;DHT22;886;50.082;8.222;2023-04-24T04:24:26;11.60;99.90
1778;DHT22;886;50.082;8.222;2023-04-24T04:26:53;11.60;99.90
1778;DHT22;886;50.082;8.222;2023-04-24T04:29:23;11.60;99.90
1778;DHT22;886;50.082;8.222;2023-04-24T04:31:50;11.50;99.90
1778;DHT22;886;50.082;8.222;2023-04-24T04:34:18;11.40;99.90
1778;DHT22;886;50.082;8.222;2023-04-24T04:36:46;11.30;99.90
1778;DHT22;886;50.082;8.222;2023-04-24T04:39:14;11.40;99.90
1778;DHT22;886;50.082;8.222;2023-04-24T04:41:42;11.40;99.90
1778;DHT22;886;50.082;8.222;2023-04-24T04:44:09;11.20;99.90
1778;DHT22;886;50.082;8.222;2023-04-24T04:46:36;11.10;99.90
1778;DHT22;886;50.082;8.222;2023-04-24T04:49:05;11.20;99.90
1778;DHT22;886;50.082;8.222;2023-04-24T04:51:35;11.20;99.90
1778;DHT22;886;50.082;8.222;2023-04-24T04:54:03;11.20;99.90
1778;DHT22;886;50.082;8.222;2023-04-24T04:56:31;11.20;99.90
1778;DHT22;886;50.082;8.222;2023-04-24T04:58:58;11.20;99.90
1778;DHT22;886;50.082;8.222;2023-04-24T05:01:26;11.20;99.90
1778;DHT22;886;50.082;8.222;2023-04-24T05:03:54;11.10;99.90
1778;DHT22;886;50.082;8.222;2023-04-24T05:06:22;11.20;99.90
1778;DHT22;886;50.082;8.222;2023-04-24T05:08:50;11.20;99.90
1778;DHT22;886;50.082;8.222;2023-04-24T05:11:18;11.30;99.90
1778;DHT22;886;50.082;8.222;2023-04-24T05:13:46;11.30;99.90
1778;DHT22;886;50.082;8.222;2023-04-24T05:16:17;11.30;99.90
1778;DHT22;886;50.082;8.222;2023-04-24T05:18:44;11.30;99.90
1778;DHT22;886;50.082;8.222;2023-04-24T05:21:17;11.30;99.90
1778;DHT22;886;50.082;8.222;2023-04-24T05:23:44;11.30;99.90
1778;DHT22;886;50.082;8.222;2023-04-24T05:26:15;11.30;99.90
1778;DHT22;886;50.082;8.222;2023-04-24T05:28:46;11.40;99.90
1778;DHT22;886;50.082;8.222;2023-04-24T05:31:14;11.50;99.90
1778;DHT22;886;50.082;8.222;2023-04-24T05:33:59;11.60;99.90
1778;DHT22;886;50.082;8.222;2023-04-24T05:36:26;11.40;99.90
1778;DHT22;886;50.082;8.222;2023-04-24T05:38:53;11.30;99.90
1778;DHT22;886;50.082;8.222;2023-04-24T05:41:21;11.40;99.90
1778;DHT22;886;50.082;8.222;2023-04-24T05:43:53;11.30;99.90
1778;DHT22;886;50.082;8.222;2023-04-24T05:46:23;11.30;99.90
1778;DHT22;886;50.082;8.222;2023-04-24T05:48:54;11.40;99.90
1778;DHT22;886;50.082;8.222;2023-04-24T05:51:22;11.40;99.90
1778;DHT22;886;50.082;8.222;2023-04-24T05:53:49;11.60;99.90
1778;DHT22;886;50.082;8.222;2023-04-24T05:56:16;11.70;99.90
1778;DHT22;886;50.082;8.222;2023-04-24T05:58:47;11.80;99.90
1778;DHT22;886;50.082;8.222;2023-04-24T06:01:18;11.90;99.90
1778;DHT22;886;50.082;8.222;2023-04-24T06:03:46;12.00;99.90
1778;DHT22;886;50.082;8.222;2023-04-24T06:06:17;12.10;99.90
1778;DHT22;886;50.082;8.222;2023-04-24T06:08:49;12.10;99.90
1778;DHT22;886;50.082;8.222;2023-04-24T06:11:19;12.10;99.90
1778;DHT22;886;50.082;8.222;2023-04-24T06:13:47;12.00;99.90
1778;DHT22;886;50.082;8.222;2023-04-24T06:16:21;12.00;99.90
1778;DHT22;886;50.082;8.222;2023-04-24T06:18:49;12.10;99.90
1778;DHT22;886;50.082;8.222;2023-04-24T06:21:17;12.30;99.90
1778;DHT22;886;50.082;8.222;2023-04-24T06:23:44;12.50;99.80
1778;DHT22;886;50.082;8.222;2023-04-24T06:26:16;12.90;99.50
1778;DHT22;886;50.082;8.222;2023-04-24T06:28:43;13.10;99.00
1778;DHT22;886;50.082;8.222;2023-04-24T06:31:10;13.00;99.10
1778;DHT22;886;50.082;8.222;2023-04-24T06:33:39;12.80;99.30
1778;DHT22;886;50.082;8.222;2023-04-24T06:36:06;12.80;99.50
1778;DHT22;886;50.082;8.222;2023-04-24T06:38:39;12.80;99.30
1778;DHT22;886;50.082;8.222;2023-04-24T06:41:12;12.80;99.10
1778;DHT22;886;50.082;8.222;2023-04-24T06:43:40;13.00;99.20
1778;DHT22;886;50.082;8.222;2023-04-24T06:46:11;13.20;98.90
1778;DHT22;886;50.082;8.222;2023-04-24T06:48:40;13.40;98.60
1778;DHT22;886;50.082;8.222;2023-04-24T06:51:07;13.50;98.50
1778;DHT22;886;50.082;8.222;2023-04-24T06:53:37;13.40;98.30
1778;DHT22;886;50.082;8.222;2023-04-24T06:56:04;13.30;98.20
1778;DHT22;886;50.082;8.222;2023-04-24T06:58:31;13.40;98.30
1778;DHT22;886;50.082;8.222;2023-04-24T07:00:59;13.70;98.10
1778;DHT22;886;50.082;8.222;2023-04-24T07:03:26;13.90;97.80
1778;DHT22;886;50.082;8.222;2023-04-24T07:05:56;14.10;98.20
1778;DHT22;886;50.082;8.222;2023-04-24T07:08:24;14.90;96.90
1778;DHT22;886;50.082;8.222;2023-04-24T07:10:52;14.70;96.70
1778;DHT22;886;50.082;8.222;2023-04-24T07:13:31;14.50;96.50
1778;DHT22;886;50.082;8.222;2023-04-24T07:15:58;14.90;96.80
1778;DHT22;886;50.082;8.222;2023-04-24T07:18:25;15.20;95.90
1778;DHT22;886;50.082;8.222;2023-04-24T07:20:53;15.30;95.80
1778;DHT22;886;50.082;8.222;2023-04-24T07:23:25;15.00;95.80
1778;DHT22;886;50.082;8.222;2023-04-24T07:25:52;17.80;95.40
1778;DHT22;886;50.082;8.222;2023-04-24T07:28:19;20.60;89.10
1778;DHT22;886;50.082;8.222;2023-04-24T07:30:46;19.50;88.40
1778;DHT22;886;50.082;8.222;2023-04-24T07:33:13;18.40;91.10
1778;DHT22;886;50.082;8.222;2023-04-24T07:35:40;17.40;91.40
1778;DHT22;886;50.082;8.222;2023-04-24T07:38:08;17.30;92.50
1778;DHT22;886;50.082;8.222;2023-04-24T07:40:36;18.40;90.30
1778;DHT22;886;50.082;8.222;2023-04-24T07:43:10;20.40;90.30
1778;DHT22;886;50.082;8.222;2023-04-24T07:45:37;20.70;85.90
1778;DHT22;886;50.082;8.222;2023-04-24T07:48:11;19.20;88.80
1778;DHT22;886;50.082;8.222;2023-04-24T07:50:41;17.70;90.80
1778;DHT22;886;50.082;8.222;2023-04-24T07:53:08;16.50;92.20
1778;DHT22;886;50.082;8.222;2023-04-24T07:55:37;16.80;91.70
1778;DHT22;886;50.082;8.222;2023-04-24T07:58:04;18.00;91.90
1778;DHT22;886;50.082;8.222;2023-04-24T08:00:32;21.90;85.90
1778;DHT22;886;50.082;8.222;2023-04-24T08:02:59;21.70;81.80
1778;DHT22;886;50.082;8.222;2023-04-24T08:05:27;20.10;84.30
1778;DHT22;886;50.082;8.222;2023-04-24T08:07:58;18.70;88.00
1778;DHT22;886;50.082;8.222;2023-04-24T08:10:26;17.60;90.00
1778;DHT22;886;50.082;8.222;2023-04-24T08:12:54;16.70;91.30
1778;DHT22;886;50.082;8.222;2023-04-24T08:15:22;16.20;91.50
1778;DHT22;886;50.082;8.222;2023-04-24T08:17:51;15.40;91.70
1778;DHT22;886;50.082;8.222;2023-04-24T08:20:19;15.10;92.30
1778;DHT22;886;50.082;8.222;2023-04-24T08:22:50;14.90;92.60
1778;DHT22;886;50.082;8.222;2023-04-24T08:25:17;14.80;92.70
1778;DHT22;886;50.082;8.222;2023-04-24T08:27:45;14.80;92.80
1778;DHT22;886;50.082;8.222;2023-04-24T08:30:13;14.70;93.00
1778;DHT22;886;50.082;8.222;2023-04-24T08:32:41;14.70;93.30
1778;DHT22;886;50.082;8.222;2023-04-24T08:35:09;14.60;93.40
1778;DHT22;886;50.082;8.222;2023-04-24T08:37:37;14.50;93.50
1778;DHT22;886;50.082;8.222;2023-04-24T08:40:09;14.40;93.70
1778;DHT22;886;50.082;8.222;2023-04-24T08:42:41;14.40;94.00
1778;DHT22;886;50.082;8.222;2023-04-24T08:45:13;14.40;94.10
1778;DHT22;886;50.082;8.222;2023-04-24T08:47:41;14.40;94.60
1778;DHT22;886;50.082;8.222;2023-04-24T08:50:10;14.20;95.00
1778;DHT22;886;50.082;8.222;2023-04-24T08:52:37;14.00;95.70
1778;DHT22;886;50.082;8.222;2023-04-24T08:55:06;14.00;95.70
1778;DHT22;886;50.082;8.222;2023-04-24T08:57:36;14.10;95.80
1778;DHT22;886;50.082;8.222;2023-04-24T09:00:06;14.20;95.60
1778;DHT22;886;50.082;8.222;2023-04-24T09:02:42;14.10;96.10
1778;DHT22;886;50.082;8.222;2023-04-24T09:05:12;14.10;96.20
1778;DHT22;886;50.082;8.222;2023-04-24T09:07:45;14.10;95.90
1778;DHT22;886;50.082;8.222;2023-04-24T09:10:18;13.90;95.60
1778;DHT22;886;50.082;8.222;2023-04-24T09:12:47;13.80;95.80
1778;DHT22;886;50.082;8.222;2023-04-24T09:15:14;14.00;95.90
1778;DHT22;886;50.082;8.222;2023-04-24T09:17:43;14.20;95.70
1778;DHT22;886;50.082;8.222;2023-04-24T09:20:10;14.10;95.60
1778;DHT22;886;50.082;8.222;2023-04-24T09:22:38;14.00;95.80
1778;DHT22;886;50.082;8.222;2023-04-24T09:25:12;14.00;95.70
1778;DHT22;886;50.082;8.222;2023-04-24T09:27:42;14.10;95.70
1778;DHT22;886;50.082;8.222;2023-04-24T09:30:13;14.20;95.80
1778;DHT22;886;50.082;8.222;2023-04-24T09:33:09;14.20;95.70
1778;DHT22;886;50.082;8.222;2023-04-24T09:35:41;14.30;95.70
1778;DHT22;886;50.082;8.222;2023-04-24T09:38:08;14.30;95.40
1778;DHT22;886;50.082;8.222;2023-04-24T09:40:36;14.40;95.40
1778;DHT22;886;50.082;8.222;2023-04-24T09:43:10;14.20;94.80
1778;DHT22;886;50.082;8.222;2023-04-24T09:45:39;14.10;95.10
1778;DHT22;886;50.082;8.222;2023-04-24T09:48:10;14.00;95.30
1778;DHT22;886;50.082;8.222;2023-04-24T09:50:37;13.90;95.90
1778;DHT22;886;50.082;8.222;2023-04-24T09:53:08;13.80;96.30
1778;DHT22;886;50.082;8.222;2023-04-24T09:55:39;13.70;96.80
1778;DHT22;886;50.082;8.222;2023-04-24T09:58:08;13.80;97.30
1778;DHT22;886;50.082;8.222;2023-04-24T10:00:35;13.90;97.50
1778;DHT22;886;50.082;8.222;2023-04-24T10:03:06;13.80;98.00
1778;DHT22;886;50.082;8.222;2023-04-24T10:05:36;13.70;98.00
1778;DHT22;886;50.082;8.222;2023-04-24T10:08:09;13.80;98.80
1778;DHT22;886;50.082;8.222;2023-04-24T10:10:39;13.70;98.80
1778;DHT22;886;50.082;8.222;2023-04-24T10:13:09;13.70;99.40
1778;DHT22;886;50.082;8.222;2023-04-24T10:15:38;13.70;99.00
1778;DHT22;886;50.082;8.222;2023-04-24T10:18:10;13.50;99.00
1778;DHT22;886;50.082;8.222;2023-04-24T10:20:40;13.50;99.40
1778;DHT22;886;50.082;8.222;2023-04-24T10:23:07;13.50;99.80
1778;DHT22;886;50.082;8.222;2023-04-24T10:25:35;13.50;99.50
1778;DHT22;886;50.082;8.222;2023-04-24T10:28:06;13.50;99.00
1778;DHT22;886;50.082;8.222;2023-04-24T10:30:45;13.70;99.00
1778;DHT22;886;50.082;8.222;2023-04-24T10:33:12;14.20;99.10
1778;DHT22;886;50.082;8.222;2023-04-24T10:35:44;14.70;98.30
1778;DHT22;886;50.082;8.222;2023-04-24T10:38:18;15.30;96.20
1778;DHT22;886;50.082;8.222;2023-04-24T10:40:50;15.60;95.40
1778;DHT22;886;50.082;8.222;2023-04-24T10:43:35;15.90;95.20
1778;DHT22;886;50.082;8.222;2023-04-24T10:46:06;16.20;95.10
1778;DHT22;886;50.082;8.222;2023-04-24T10:48:33;16.30;95.00
1778;DHT22;886;50.082;8.222;2023-04-24T10:51:02;16.20;94.50
1778;DHT22;886;50.082;8.222;2023-04-24T10:53:30;16.10;94.80
1778;DHT22;886;50.082;8.222;2023-04-24T10:56:00;15.90;94.70
1778;DHT22;886;50.082;8.222;2023-04-24T10:58:37;15.80;94.90
1778;DHT22;886;50.082;8.222;2023-04-24T11:01:07;15.50;94.80
1778;DHT22;886;50.082;8.222;2023-04-24T11:03:37;15.50;94.90
1778;DHT22;886;50.082;8.222;2023-04-24T11:06:10;15.80;95.00
1778;DHT22;886;50.082;8.222;2023-04-24T11:08:43;16.10;94.70
1778;DHT22;886;50.082;8.222;2023-04-24T11:11:12;16.20;94.50
1778;DHT22;886;50.082;8.222;2023-04-24T11:14:05;16.50;94.30
1778;DHT22;886;50.082;8.222;2023-04-24T11:16:44;16.40;94.10
1778;DHT22;886;50.082;8.222;2023-04-24T11:19:22;16.30;93.90
1778;DHT22;886;50.082;8.222;2023-04-24T11:21:59;16.10;93.80
1778;DHT22;886;50.082;8.222;2023-04-24T11:24:39;15.90;93.80
1778;DHT22;886;50.082;8.222;2023-04-24T11:27:12;15.80;94.10
1778;DHT22;886;50.082;8.222;2023-04-24T11:29:47;15.50;94.30
1778;DHT22;886;50.082;8.222;2023-04-24T11:32:17;15.20;94.00
1778;DHT22;886;50.082;8.222;2023-04-24T11:34:47;14.90;94.90
1778;DHT22;886;50.082;8.222;2023-04-24T11:37:17;14.80;96.20
1778;DHT22;886;50.082;8.222;2023-04-24T11:39:44;14.30;97.90
1778;DHT22;886;50.082;8.222;2023-04-24T11:42:14;13.70;99.90
1778;DHT22;886;50.082;8.222;2023-04-24T11:44:42;13.50;99.90
1778;DHT22;886;50.082;8.222;2023-04-24T11:47:09;13.50;99.90
1778;DHT22;886;50.082;8.222;2023-04-24T11:49:37;13.40;99.90
1778;DHT22;886;50.082;8.222;2023-04-24T11:52:04;13.60;99.90
1778;DHT22;886;50.082;8.222;2023-04-24T11:54:34;13.90;99.90
1778;DHT22;886;50.082;8.222;2023-04-24T11:57:04;14.00;99.90
1778;DHT22;886;50.082;8.222;2023-04-24T11:59:36;14.00;99.90
1778;DHT22;886;50.082;8.222;2023-04-24T12:02:07;13.90;99.90
1778;DHT22;886;50.082;8.222;2023-04-24T12:04:40;14.00;99.90
1778;DHT22;886;50.082;8.222;2023-04-24T12:07:08;14.00;99.70
1778;DHT22;886;50.082;8.222;2023-04-24T12:09:44;14.50;99.90
1778;DHT22;886;50.082;8.222;2023-04-24T12:12:17;14.80;99.90
1778;DHT22;886;50.082;8.222;2023-04-24T12:14:48;15.00;99.30
1778;DHT22;886;50.082;8.222;2023-04-24T12:17:17;15.20;98.70
1778;DHT22;886;50.082;8.222;2023-04-24T12:19:48;15.50;98.50
1778;DHT22;886;50.082;8.222;2023-04-24T12:22:15;15.50;98.60
1778;DHT22;886;50.082;8.222;2023-04-24T12:25:14;15.80;98.20
1778;DHT22;886;50.082;8.222;2023-04-24T12:27:51;16.00;97.90
1778;DHT22;886;50.082;8.222;2023-04-24T12:30:27;15.80;97.50
1778;DHT22;886;50.082;8.222;2023-04-24T12:32:58;15.70;96.60
1778;DHT22;886;50.082;8.222;2023-04-24T12:35:31;15.70;97.30
1778;DHT22;886;50.082;8.222;2023-04-24T12:38:05;15.70;97.10
1778;DHT22;886;50.082;8.222;2023-04-24T12:40:35;15.60;96.60
1778;DHT22;886;50.082;8.222;2023-04-24T12:43:13;15.50;96.10
1778;DHT22;886;50.082;8.222;2023-04-24T12:45:40;15.50;95.90
1778;DHT22;886;50.082;8.222;2023-04-24T12:48:08;15.70;95.70
1778;DHT22;886;50.082;8.222;2023-04-24T12:50:35;15.90;96.30
1778;DHT22;886;50.082;8.222;2023-04-24T12:53:02;15.80;95.90
1778;DHT22;886;50.082;8.222;2023-04-24T12:55:29;15.80;95.60
1778;DHT22;886;50.082;8.222;2023-04-24T12:57:58;15.70;96.00
1778;DHT22;886;50.082;8.222;2023-04-24T13:00:25;15.60;95.30
1778;DHT22;886;50.082;8.222;2023-04-24T13:02:52;15.40;95.10
1778;DHT22;886;50.082;8.222;2023-04-24T13:05:23;15.20;96.30
1778;DHT22;886;50.082;8.222;2023-04-24T13:07:51;15.20;97.10
1778;DHT22;886;50.082;8.222;2023-04-24T13:10:18;15.20;96.90
1778;DHT22;886;50.082;8.222;2023-04-24T13:12:46;15.20;97.60
1778;DHT22;886;50.082;8.222;2023-04-24T13:15:22;15.30;96.20
1778;DHT22;886;50.082;8.222;2023-04-24T13:17:55;15.30;96.20
1778;DHT22;886;50.082;8.222;2023-04-24T13:20:22;15.10;95.40
1778;DHT22;886;50.082;8.222;2023-04-24T13:22:49;14.90;96.40
1778;DHT22;886;50.082;8.222;2023-04-24T13:25:16;14.60;96.40
1778;DHT22;886;50.082;8.222;2023-04-24T13:27:44;14.50;96.40
1778;DHT22;886;50.082;8.222;2023-04-24T13:30:16;14.40;96.30
1778;DHT22;886;50.082;8.222;2023-04-24T13:32:44;14.60;96.00
1778;DHT22;886;50.082;8.222;2023-04-24T13:35:14;14.70;95.50
1778;DHT22;886;50.082;8.222;2023-04-24T13:37:44;14.70;95.70
1778;DHT22;886;50.082;8.222;2023-04-24T13:40:12;14.80;95.50
1778;DHT22;886;50.082;8.222;2023-04-24T13:42:41;14.80;94.50
1778;DHT22;886;50.082;8.222;2023-04-24T13:45:09;14.90;95.00
1778;DHT22;886;50.082;8.222;2023-04-24T13:47:52;14.80;94.70
1778;DHT22;886;50.082;8.222;2023-04-24T13:50:21;14.80;94.80
1778;DHT22;886;50.082;8.222;2023-04-24T13:52:48;14.80;93.90
1778;DHT22;886;50.082;8.222;2023-04-24T13:55:16;15.00;93.60
1778;DHT22;886;50.082;8.222;2023-04-24T13:57:49;15.30;93.10
1778;DHT22;886;50.082;8.222;2023-04-24T14:00:20;15.50;93.50
1778;DHT22;886;50.082;8.222;2023-04-24T14:02:47;15.50;93.30
1778;DHT22;886;50.082;8.222;2023-04-24T14:05:16;15.40;93.40
1778;DHT22;886;50.082;8.222;2023-04-24T14:07:45;15.10;93.50
1778;DHT22;886;50.082;8.222;2023-04-24T14:10:18;14.90;93.90
1778;DHT22;886;50.082;8.222;2023-04-24T14:12:48;15.00;94.60
1778;DHT22;886;50.082;8.222;2023-04-24T14:15:16;15.10;94.00
1778;DHT22;886;50.082;8.222;2023-04-24T14:17:43;15.30;94.30
1778;DHT22;886;50.082;8.222;2023-04-24T14:20:12;15.50;94.00
1778;DHT22;886;50.082;8.222;2023-04-24T14:22:40;15.50;92.80
1778;DHT22;886;50.082;8.222;2023-04-24T14:25:08;15.60;93.00
1778;DHT22;886;50.082;8.222;2023-04-24T14:27:36;15.60;92.80
1778;DHT22;886;50.082;8.222;2023-04-24T14:30:06;15.90;92.70
1778;DHT22;886;50.082;8.222;2023-04-24T14:32:38;16.10;91.70
1778;DHT22;886;50.082;8.222;2023-04-24T14:35:06;16.20;91.10
1778;DHT22;886;50.082;8.222;2023-04-24T14:37:34;16.10;91.20
1778;DHT22;886;50.082;8.222;2023-04-24T14:40:10;16.00;91.00
1778;DHT22;886;50.082;8.222;2023-04-24T14:42:58;16.00;91.20
1778;DHT22;886;50.082;8.222;2023-04-24T14:45:26;15.90;91.00
1778;DHT22;886;50.082;8.222;2023-04-24T14:47:59;15.90;91.00
1778;DHT22;886;50.082;8.222;2023-04-24T14:50:27;15.90;91.10
1778;DHT22;886;50.082;8.222;2023-04-24T14:52:57;15.90;91.20
1778;DHT22;886;50.082;8.222;2023-04-24T14:55:26;15.80;91.20
1778;DHT22;886;50.082;8.222;2023-04-24T14:57:53;15.70;91.30
1778;DHT22;886;50.082;8.222;2023-04-24T15:00:23;15.60;91.10
1778;DHT22;886;50.082;8.222;2023-04-24T15:02:51;15.40;91.30
1778;DHT22;886;50.082;8.222;2023-04-24T15:05:18;15.30;91.60
1778;DHT22;886;50.082;8.222;2023-04-24T15:07:46;15.30;91.50
1778;DHT22;886;50.082;8.222;2023-04-24T15:10:13;15.10;91.70
1778;DHT22;886;50.082;8.222;2023-04-24T15:12:43;15.20;91.70
1778;DHT22;886;50.082;8.222;2023-04-24T15:15:11;15.20;92.10
1778;DHT22;886;50.082;8.222;2023-04-24T15:17:38;15.20;92.00
1778;DHT22;886;50.082;8.222;2023-04-24T15:20:11;15.10;91.80
1778;DHT22;886;50.082;8.222;2023-04-24T15:22:42;15.10;92.00
1778;DHT22;886;50.082;8.222;2023-04-24T15:25:10;15.00;92.10
1778;DHT22;886;50.082;8.222;2023-04-24T15:27:42;14.90;92.10
1778;DHT22;886;50.082;8.222;2023-04-24T15:30:11;14.90;92.40
1778;DHT22;886;50.082;8.222;2023-04-24T15:32:39;15.00;92.30
1778;DHT22;886;50.082;8.222;2023-04-24T15:35:06;15.20;92.70
1778;DHT22;886;50.082;8.222;2023-04-24T15:37:36;15.30;92.50
1778;DHT22;886;50.082;8.222;2023-04-24T15:40:04;15.30;92.30
1778;DHT22;886;50.082;8.222;2023-04-24T15:42:34;15.30;92.30
1778;DHT22;886;50.082;8.222;2023-04-24T15:45:03;15.10;92.60
1778;DHT22;886;50.082;8.222;2023-04-24T15:47:32;15.10;92.60
1778;DHT22;886;50.082;8.222;2023-04-24T15:49:59;15.00;92.90
1778;DHT22;886;50.082;8.222;2023-04-24T15:52:27;15.00;92.70
1778;DHT22;886;50.082;8.222;2023-04-24T15:54:54;14.90;92.70
1778;DHT22;886;50.082;8.222;2023-04-24T15:57:23;14.90;92.80
1778;DHT22;886;50.082;8.222;2023-04-24T16:00:10;15.00;92.90
1778;DHT22;886;50.082;8.222;2023-04-24T16:02:39;15.10;93.10
1778;DHT22;886;50.082;8.222;2023-04-24T16:05:07;15.00;92.80
1778;DHT22;886;50.082;8.222;2023-04-24T16:07:37;15.10;93.20
1778;DHT22;886;50.082;8.222;2023-04-24T16:10:05;15.10;92.90
1778;DHT22;886;50.082;8.222;2023-04-24T16:12:33;15.10;93.30
1778;DHT22;886;50.082;8.222;2023-04-24T16:15:00;15.30;92.90
1778;DHT22;886;50.082;8.222;2023-04-24T16:17:29;15.40;92.60
1778;DHT22;886;50.082;8.222;2023-04-24T16:19:59;15.60;91.80
1778;DHT22;886;50.082;8.222;2023-04-24T16:22:27;15.60;91.60
1778;DHT22;886;50.082;8.222;2023-04-24T16:24:54;15.50;91.60
1778;DHT22;886;50.082;8.222;2023-04-24T16:27:22;15.30;91.70
1778;DHT22;886;50.082;8.222;2023-04-24T16:29:51;15.20;91.90
1778;DHT22;886;50.082;8.222;2023-04-24T16:32:19;15.10;91.70
1778;DHT22;886;50.082;8.222;2023-04-24T16:34:48;15.00;91.70